createdAt,value
2017-10-03T00:01:40.128Z,99.20
2017-10-03T00:04:07.697Z,99.00
2017-10-03T00:06:35.231Z,99.30
2017-10-03T00:09:02.769Z,99.30
2017-10-03T00:11:30.332Z,99.40
2017-10-03T00:13:57.870Z,99.10
2017-10-03T00:16:25.831Z,99.40
2017-10-03T00:18:53.389Z,99.40
2017-10-03T00:21:20.938Z,99.30
2017-10-03T00:23:48.490Z,99.20
2017-10-03T00:26:16.047Z,99.10
2017-10-03T00:28:43.594Z,98.80
2017-10-03T00:31:11.170Z,98.60
2017-10-03T00:33:39.099Z,98.80
2017-10-03T00:36:06.647Z,98.80
2017-10-03T00:38:34.207Z,98.20
2017-10-03T00:41:01.790Z,98.00
2017-10-03T00:43:29.353Z,98.40
2017-10-03T00:45:56.903Z,98.30
2017-10-03T00:48:24.473Z,98.70
2017-10-03T00:50:52.047Z,99.00
2017-10-03T00:53:20.006Z,99.00
2017-10-03T00:55:47.549Z,99.00
2017-10-03T00:58:15.102Z,98.50
2017-10-03T01:00:43.048Z,98.70
2017-10-03T01:03:10.610Z,98.70
2017-10-03T01:05:38.158Z,98.70
2017-10-03T01:08:06.104Z,98.90
2017-10-03T01:10:33.665Z,98.90
2017-10-03T01:13:01.225Z,99.00
2017-10-03T01:15:29.177Z,99.00
2017-10-03T01:17:56.722Z,99.00
2017-10-03T01:20:24.277Z,99.40
2017-10-03T01:22:52.214Z,99.20
2017-10-03T01:25:19.788Z,99.20
2017-10-03T01:27:47.341Z,99.10
2017-10-03T01:30:14.921Z,99.30
2017-10-03T01:32:42.455Z,99.40
2017-10-03T01:35:09.991Z,99.30
2017-10-03T01:40:42.708Z,99.60
2017-10-03T01:43:10.261Z,99.60
2017-10-03T01:45:37.810Z,99.40
2017-10-03T01:48:05.360Z,99.60
2017-10-03T01:50:33.301Z,99.70
2017-10-03T01:53:00.855Z,99.70
2017-10-03T01:55:28.404Z,99.80
2017-10-03T01:57:56.003Z,99.90
2017-10-03T02:00:23.627Z,99.50
2017-10-03T02:02:51.182Z,99.80
2017-10-03T02:05:19.151Z,99.90
2017-10-03T02:07:46.738Z,99.90
2017-10-03T02:10:14.340Z,99.90
2017-10-03T02:12:41.905Z,99.90
2017-10-03T02:15:09.489Z,99.90
2017-10-03T02:17:37.078Z,99.90
2017-10-03T02:20:04.670Z,99.70
2017-10-03T02:22:32.292Z,99.80
2017-10-03T02:24:59.852Z,99.80
2017-10-03T02:27:27.404Z,99.90
2017-10-03T02:29:54.979Z,99.90
2017-10-03T02:32:22.513Z,99.80
2017-10-03T02:34:50.433Z,99.90
2017-10-03T02:37:17.986Z,99.90
2017-10-03T02:39:45.526Z,99.80
2017-10-03T02:42:13.088Z,99.90
2017-10-03T02:44:40.633Z,99.80
2017-10-03T02:47:08.610Z,99.80
2017-10-03T02:49:36.384Z,99.80
2017-10-03T02:52:03.943Z,99.90
2017-10-03T02:54:31.533Z,99.90
2017-10-03T02:56:59.102Z,99.70
2017-10-03T02:59:26.645Z,99.70
2017-10-03T03:01:54.641Z,99.60
2017-10-03T03:04:22.196Z,99.60
2017-10-03T03:06:49.727Z,99.80
2017-10-03T03:09:17.732Z,99.80
2017-10-03T03:11:45.304Z,99.80
2017-10-03T03:14:12.983Z,99.80
2017-10-03T03:16:40.645Z,99.30
2017-10-03T03:19:08.338Z,99.60
2017-10-03T03:21:36.032Z,99.60
2017-10-03T03:24:04.067Z,99.20
2017-10-03T03:26:31.703Z,99.20
2017-10-03T03:28:59.376Z,99.40
2017-10-03T03:31:27.047Z,99.10
2017-10-03T03:33:54.806Z,99.30
2017-10-03T03:36:22.456Z,99.00
2017-10-03T03:38:50.165Z,99.20
2017-10-03T03:41:17.917Z,99.30
2017-10-03T03:43:45.586Z,99.40
2017-10-03T03:46:14.443Z,99.70
2017-10-03T03:48:42.795Z,99.70
2017-10-03T03:51:10.417Z,99.70
2017-10-03T03:53:38.168Z,98.90
2017-10-03T03:56:05.808Z,99.30
2017-10-03T03:58:33.906Z,99.60
2017-10-03T04:01:01.975Z,99.60
2017-10-03T04:03:29.656Z,99.60
2017-10-03T04:05:57.291Z,99.50
2017-10-03T04:08:24.953Z,99.00
2017-10-03T04:10:52.644Z,99.50
2017-10-03T04:13:20.320Z,99.70
2017-10-03T04:15:53.843Z,99.60
2017-10-03T04:18:21.502Z,99.20
2017-10-03T04:20:49.115Z,99.20
2017-10-03T04:23:16.754Z,99.40
2017-10-03T04:25:44.416Z,99.30
2017-10-03T04:28:12.405Z,99.20
2017-10-03T04:30:40.027Z,99.20
2017-10-03T04:33:07.641Z,99.30
2017-10-03T04:35:35.264Z,99.40
2017-10-03T04:38:03.258Z,99.60
2017-10-03T04:40:32.299Z,99.40
2017-10-03T04:42:59.936Z,99.40
2017-10-03T04:45:27.546Z,99.50
2017-10-03T04:47:55.139Z,99.60
2017-10-03T04:50:22.784Z,99.60
2017-10-03T04:52:50.396Z,99.60
2017-10-03T04:55:18.065Z,99.40
2017-10-03T04:57:45.664Z,99.70
2017-10-03T05:00:13.333Z,99.60
2017-10-03T05:02:40.976Z,99.60
2017-10-03T05:05:08.622Z,99.60
2017-10-03T05:07:36.190Z,99.80
2017-10-03T05:10:03.756Z,99.90
2017-10-03T05:12:31.364Z,99.60
2017-10-03T05:14:58.981Z,99.60
2017-10-03T05:17:26.616Z,99.40
2017-10-03T05:19:54.236Z,99.70
2017-10-03T05:22:24.386Z,99.70
2017-10-03T05:24:52.510Z,99.80
2017-10-03T05:27:20.149Z,99.90
2017-10-03T05:29:47.857Z,99.60
2017-10-03T05:32:15.470Z,99.40
2017-10-03T05:34:46.469Z,99.50
2017-10-03T05:37:14.015Z,99.30
2017-10-03T05:39:41.574Z,99.60
2017-10-03T05:42:09.133Z,99.40
2017-10-03T05:44:37.093Z,99.50
2017-10-03T05:47:04.644Z,99.50
2017-10-03T05:49:32.218Z,99.60
2017-10-03T05:51:59.772Z,99.70
2017-10-03T05:54:27.744Z,99.70
2017-10-03T05:56:55.286Z,99.70
2017-10-03T05:59:22.826Z,99.50
2017-10-03T06:01:50.377Z,99.60
2017-10-03T06:04:17.925Z,99.40
2017-10-03T06:06:45.494Z,99.20
2017-10-03T06:09:13.445Z,98.80
2017-10-03T06:11:41.009Z,98.80
2017-10-03T06:14:08.545Z,99.20
2017-10-03T06:16:36.111Z,99.40
2017-10-03T06:19:03.703Z,99.40
2017-10-03T06:21:31.274Z,99.40
2017-10-03T06:23:58.815Z,99.40
2017-10-03T06:26:26.363Z,99.50
2017-10-03T06:28:55.696Z,99.30
2017-10-03T06:31:23.657Z,99.50
2017-10-03T06:33:51.234Z,99.60
2017-10-03T06:36:18.772Z,99.70
2017-10-03T06:38:46.345Z,99.70
2017-10-03T06:41:13.879Z,99.40
2017-10-03T06:43:41.449Z,99.00
2017-10-03T06:46:09.001Z,98.80
2017-10-03T06:48:36.983Z,99.40
2017-10-03T06:51:04.525Z,99.40
2017-10-03T06:53:32.061Z,98.60
2017-10-03T06:56:00.025Z,99.00
2017-10-03T06:58:27.580Z,99.00
2017-10-03T07:00:55.143Z,99.00
2017-10-03T07:03:22.683Z,99.20
2017-10-03T07:05:50.243Z,99.50
2017-10-03T07:08:17.796Z,99.20
2017-10-03T07:10:45.374Z,99.20
2017-10-03T07:13:12.919Z,99.00
2017-10-03T07:15:40.481Z,99.20
2017-10-03T07:18:10.065Z,99.50
2017-10-03T07:20:37.998Z,99.50
2017-10-03T07:23:05.560Z,99.50
2017-10-03T07:25:33.103Z,99.50
2017-10-03T07:28:00.656Z,99.30
2017-10-03T07:30:28.204Z,99.60
2017-10-03T07:32:55.774Z,99.60
2017-10-03T07:35:23.313Z,99.10
2017-10-03T07:37:50.881Z,99.10
2017-10-03T07:40:18.427Z,99.00
2017-10-03T07:42:45.999Z,99.10
2017-10-03T07:45:13.541Z,99.40
2017-10-03T07:47:41.093Z,99.40
2017-10-03T07:50:08.654Z,99.60
2017-10-03T07:52:36.602Z,98.90
2017-10-03T07:55:04.166Z,98.90
2017-10-03T07:57:31.725Z,99.30
2017-10-03T07:59:59.679Z,99.20
2017-10-03T08:02:27.221Z,99.20
2017-10-03T08:04:54.764Z,99.30
2017-10-03T08:07:22.341Z,99.50
2017-10-03T08:09:49.895Z,99.00
2017-10-03T08:12:17.458Z,98.90
2017-10-03T08:14:44.997Z,98.70
2017-10-03T08:17:12.563Z,98.70
2017-10-03T08:19:40.114Z,98.40
2017-10-03T08:22:07.658Z,98.30
2017-10-03T08:24:35.232Z,98.30
2017-10-03T08:27:02.805Z,98.20
2017-10-03T08:29:30.471Z,98.30
2017-10-03T08:31:58.029Z,98.20
2017-10-03T08:34:25.618Z,98.10
2017-10-03T08:36:53.254Z,98.40
2017-10-03T08:39:20.816Z,98.70
2017-10-03T08:41:48.348Z,98.90
2017-10-03T08:44:16.477Z,98.40
2017-10-03T08:46:44.035Z,98.40
2017-10-03T08:49:11.573Z,98.50
2017-10-03T08:51:39.160Z,97.90
2017-10-03T08:54:06.726Z,97.60
2017-10-03T08:56:34.274Z,97.30
2017-10-03T08:59:02.239Z,97.50
2017-10-03T09:01:29.802Z,97.50
2017-10-03T09:03:57.368Z,97.30
2017-10-03T09:06:24.904Z,97.50
2017-10-03T09:08:52.863Z,97.00
2017-10-03T09:11:20.398Z,96.90
2017-10-03T09:13:48.376Z,97.50
2017-10-03T09:16:16.322Z,97.40
2017-10-03T09:18:43.860Z,97.40
2017-10-03T09:21:11.422Z,96.80
2017-10-03T09:23:38.980Z,97.20
2017-10-03T09:26:06.543Z,96.10
2017-10-03T09:28:34.082Z,96.10
2017-10-03T09:31:01.669Z,96.50
2017-10-03T09:33:29.227Z,96.20
2017-10-03T09:35:56.793Z,94.80
2017-10-03T09:38:24.337Z,94.20
2017-10-03T09:40:51.880Z,94.30
2017-10-03T09:43:19.448Z,94.50
2017-10-03T09:45:46.986Z,94.60
2017-10-03T09:48:14.538Z,95.80
2017-10-03T09:50:42.082Z,94.50
2017-10-03T09:53:09.632Z,93.10
2017-10-03T09:55:37.167Z,91.30
2017-10-03T09:58:04.715Z,91.40
2017-10-03T10:00:32.649Z,91.90
2017-10-03T10:03:00.202Z,92.00
2017-10-03T10:05:27.757Z,91.50
2017-10-03T10:07:55.336Z,92.90
2017-10-03T10:10:22.865Z,88.50
2017-10-03T10:12:50.393Z,87.80
2017-10-03T10:15:18.026Z,86.90
2017-10-03T10:17:45.587Z,89.60
2017-10-03T10:20:13.138Z,89.20
2017-10-03T10:22:40.681Z,90.70
2017-10-03T10:25:08.226Z,85.50
2017-10-03T10:27:35.756Z,85.50
2017-10-03T10:30:03.322Z,84.30
2017-10-03T10:32:30.854Z,85.20
2017-10-03T10:34:58.398Z,83.80
2017-10-03T10:37:25.946Z,84.60
2017-10-03T10:39:53.484Z,84.30
2017-10-03T10:42:21.038Z,84.00
2017-10-03T10:44:48.570Z,82.20
2017-10-03T10:47:16.123Z,83.60
2017-10-03T10:49:43.658Z,82.90
2017-10-03T10:52:11.229Z,82.30
2017-10-03T10:54:38.761Z,80.20
2017-10-03T10:57:06.294Z,80.60
2017-10-03T10:59:33.846Z,80.90
2017-10-03T11:02:01.390Z,80.40
2017-10-03T11:04:28.941Z,83.60
2017-10-03T11:06:56.477Z,82.30
2017-10-03T11:09:24.029Z,81.20
2017-10-03T11:11:51.564Z,81.50
2017-10-03T11:14:19.147Z,82.30
2017-10-03T11:16:46.674Z,82.10
2017-10-03T11:19:14.255Z,82.00
2017-10-03T11:21:41.790Z,79.90
2017-10-03T11:24:21.250Z,82.60
2017-10-03T11:26:48.789Z,81.80
2017-10-03T11:29:16.326Z,83.30
2017-10-03T11:31:43.931Z,82.90
2017-10-03T11:34:11.464Z,81.60
2017-10-03T11:36:39.022Z,81.30
2017-10-03T11:39:06.580Z,81.80
2017-10-03T11:41:34.146Z,81.30
2017-10-03T11:44:01.691Z,81.10
2017-10-03T11:46:29.283Z,81.20
2017-10-03T11:48:57.201Z,83.10
2017-10-03T11:51:24.744Z,83.10
2017-10-03T11:53:52.299Z,84.40
2017-10-03T11:56:19.834Z,85.00
2017-10-03T11:58:47.383Z,84.40
2017-10-03T12:01:14.924Z,84.40
2017-10-03T12:03:42.488Z,84.00
2017-10-03T12:06:10.064Z,84.20
2017-10-03T12:08:37.648Z,83.10
2017-10-03T12:11:05.579Z,80.90
2017-10-03T12:13:33.119Z,80.90
2017-10-03T12:16:01.381Z,82.20
2017-10-03T12:18:28.921Z,82.20
2017-10-03T12:20:56.465Z,82.50
2017-10-03T12:23:24.006Z,81.70
2017-10-03T12:25:51.559Z,80.80
2017-10-03T12:28:19.518Z,78.80
2017-10-03T12:30:47.082Z,78.80
2017-10-03T12:33:14.634Z,78.70
2017-10-03T12:35:42.198Z,77.90
2017-10-03T12:38:10.162Z,76.50
2017-10-03T12:40:37.689Z,76.50
2017-10-03T12:43:05.638Z,75.70
2017-10-03T12:45:33.179Z,75.70
2017-10-03T12:48:00.733Z,75.80
2017-10-03T12:50:28.674Z,77.40
2017-10-03T12:52:56.251Z,77.40
2017-10-03T12:55:23.806Z,74.10
2017-10-03T12:57:51.349Z,72.60
2017-10-03T13:00:18.920Z,73.70
2017-10-03T13:02:46.457Z,74.10
2017-10-03T13:05:14.419Z,75.80
2017-10-03T13:07:41.965Z,75.80
2017-10-03T13:10:09.524Z,74.10
2017-10-03T13:12:37.066Z,74.00
2017-10-03T13:15:04.618Z,75.10
2017-10-03T13:17:32.146Z,74.60
2017-10-03T13:19:59.695Z,76.10
2017-10-03T13:22:27.221Z,75.40
2017-10-03T13:24:55.172Z,73.60
2017-10-03T13:27:22.702Z,73.60
2017-10-03T13:29:50.907Z,75.70
2017-10-03T13:32:18.473Z,75.70
2017-10-03T13:34:46.015Z,76.90
2017-10-03T13:37:13.574Z,78.80
2017-10-03T13:39:41.106Z,78.30
2017-10-03T13:42:08.659Z,78.30
2017-10-03T13:44:36.194Z,77.40
2017-10-03T13:47:03.781Z,78.00
2017-10-03T13:49:31.321Z,77.20
2017-10-03T13:51:58.854Z,77.40
2017-10-03T13:54:26.409Z,76.90
2017-10-03T13:56:53.947Z,77.30
2017-10-03T13:59:21.504Z,76.90
2017-10-03T14:01:49.446Z,77.60
2017-10-03T14:04:17.002Z,77.60
2017-10-03T14:06:44.538Z,77.30
2017-10-03T14:09:12.111Z,77.30
2017-10-03T14:11:39.655Z,78.80
2017-10-03T14:14:07.191Z,80.00
2017-10-03T14:16:34.756Z,78.40
2017-10-03T14:19:02.295Z,80.60
2017-10-03T14:21:30.248Z,80.70
2017-10-03T14:23:57.801Z,80.70
2017-10-03T14:26:25.359Z,80.40
2017-10-03T14:28:52.906Z,80.30
2017-10-03T14:31:20.468Z,80.70
2017-10-03T14:33:48.003Z,80.60
2017-10-03T14:36:15.578Z,81.00
2017-10-03T14:38:43.515Z,81.30
2017-10-03T14:41:11.060Z,81.30
2017-10-03T14:43:39.019Z,80.60
2017-10-03T14:46:06.554Z,80.60
2017-10-03T14:48:34.510Z,81.40
2017-10-03T14:51:02.070Z,81.40
2017-10-03T14:53:29.639Z,80.50
2017-10-03T14:55:57.183Z,80.70
2017-10-03T14:58:25.144Z,80.70
2017-10-03T15:00:52.727Z,80.70
2017-10-03T15:03:20.302Z,80.10
2017-10-03T15:05:47.837Z,80.60
2017-10-03T15:08:15.389Z,81.70
2017-10-03T15:10:42.937Z,82.90
2017-10-03T15:13:10.474Z,83.90
2017-10-03T15:15:38.432Z,84.50
2017-10-03T15:18:05.970Z,84.40
2017-10-03T15:20:33.942Z,81.50
2017-10-03T15:23:01.481Z,81.50
2017-10-03T15:25:29.009Z,80.90
2017-10-03T15:27:56.547Z,81.00
2017-10-03T15:30:24.400Z,79.90
2017-10-03T15:32:52.354Z,79.90
2017-10-03T15:35:19.899Z,79.90
2017-10-03T15:37:47.467Z,80.50
2017-10-03T15:40:15.015Z,81.00
2017-10-03T15:42:42.550Z,80.30
2017-10-03T15:45:10.109Z,80.20
2017-10-03T15:47:38.045Z,80.40
2017-10-03T15:50:05.605Z,80.40
2017-10-03T15:52:33.877Z,80.40
2017-10-03T15:55:01.438Z,80.40
2017-10-03T15:57:28.977Z,80.70
2017-10-03T15:59:56.553Z,80.40
2017-10-03T16:02:24.082Z,81.20
2017-10-03T16:04:51.743Z,81.40
2017-10-03T16:07:19.343Z,81.70
2017-10-03T16:09:46.902Z,81.50
2017-10-03T16:12:14.509Z,82.60
2017-10-03T16:14:42.072Z,82.00
2017-10-03T16:17:09.636Z,81.50
2017-10-03T16:19:37.560Z,81.40
2017-10-03T16:22:05.150Z,81.40
2017-10-03T16:24:32.852Z,83.20
2017-10-03T16:27:00.406Z,82.10
2017-10-03T16:29:27.956Z,82.30
2017-10-03T16:31:55.882Z,82.80
2017-10-03T16:34:23.437Z,82.80
2017-10-03T16:36:51.367Z,83.30
2017-10-03T16:39:18.912Z,83.30
2017-10-03T16:41:46.834Z,83.50
2017-10-03T16:44:14.395Z,83.50
2017-10-03T16:46:42.332Z,84.20
2017-10-03T16:49:09.904Z,84.20
2017-10-03T16:51:37.454Z,84.40
2017-10-03T16:54:04.994Z,84.00
2017-10-03T16:56:32.554Z,84.90
2017-10-03T16:59:00.087Z,84.70
2017-10-03T17:01:28.071Z,84.10
2017-10-03T17:03:55.650Z,84.00
2017-10-03T17:06:23.198Z,83.60
2017-10-03T17:08:50.753Z,84.30
2017-10-03T17:11:18.685Z,84.40
2017-10-03T17:13:46.248Z,84.40
2017-10-03T17:16:13.787Z,84.60
2017-10-03T17:18:41.368Z,85.10
2017-10-03T17:21:08.944Z,85.40
2017-10-03T17:23:36.509Z,85.70
2017-10-03T17:26:04.050Z,85.90
2017-10-03T17:28:32.036Z,85.50
2017-10-03T17:31:00.023Z,86.20
2017-10-03T17:33:27.958Z,86.00
2017-10-03T17:35:55.540Z,86.00
2017-10-03T17:38:23.070Z,86.60
2017-10-03T17:40:50.628Z,86.00
2017-10-03T17:43:18.195Z,85.90
2017-10-03T17:45:45.762Z,85.90
2017-10-03T17:48:13.330Z,85.70
2017-10-03T17:50:40.897Z,86.20
2017-10-03T17:53:08.461Z,85.90
2017-10-03T17:55:36.002Z,86.20
2017-10-03T17:58:03.554Z,85.70
2017-10-03T18:00:31.103Z,85.80
2017-10-03T18:02:58.649Z,86.00
2017-10-03T18:05:26.188Z,86.20
2017-10-03T18:07:54.289Z,86.70
2017-10-03T18:10:21.842Z,86.70
2017-10-03T18:12:49.503Z,86.70
2017-10-03T18:15:17.043Z,86.80
2017-10-03T18:17:44.695Z,86.90
2017-10-03T18:20:12.263Z,87.00
2017-10-03T18:22:39.873Z,87.20
2017-10-03T18:25:07.435Z,87.60
2017-10-03T18:27:34.975Z,87.60
2017-10-03T18:30:02.557Z,87.80
2017-10-03T18:32:30.117Z,87.30
2017-10-03T18:34:57.688Z,87.70
2017-10-03T18:37:25.234Z,87.80
2017-10-03T18:39:52.791Z,87.70
2017-10-03T18:42:20.408Z,88.40
2017-10-03T18:44:47.954Z,88.00
2017-10-03T18:47:15.513Z,87.90
2017-10-03T18:49:43.063Z,87.80
2017-10-03T18:52:10.654Z,87.30
2017-10-03T18:54:38.189Z,86.80
2017-10-03T18:57:05.787Z,86.40
2017-10-03T18:59:33.384Z,85.50
2017-10-03T19:02:01.317Z,85.90
2017-10-03T19:04:28.870Z,85.90
2017-10-03T19:06:56.424Z,85.60
2017-10-03T19:09:23.981Z,85.40
2017-10-03T19:11:51.555Z,85.40
2017-10-03T19:14:19.214Z,85.40
2017-10-03T19:16:46.843Z,85.60
2017-10-03T19:19:14.445Z,85.60
2017-10-03T19:21:41.990Z,85.70
2017-10-03T19:24:09.544Z,85.10
2017-10-03T19:26:37.113Z,85.80
2017-10-03T19:29:05.054Z,85.70
2017-10-03T19:31:32.618Z,85.70
2017-10-03T19:34:00.164Z,85.90
2017-10-03T19:36:27.719Z,85.90
2017-10-03T19:38:55.256Z,86.30
2017-10-03T19:41:23.223Z,85.40
2017-10-03T19:43:50.772Z,85.40
2017-10-03T19:46:18.337Z,85.10
2017-10-03T19:48:46.179Z,84.70
2017-10-03T19:51:13.742Z,85.30
2017-10-03T19:53:41.439Z,85.30
2017-10-03T19:56:08.974Z,85.50
2017-10-03T19:58:36.633Z,85.50
2017-10-03T20:01:04.176Z,85.30
2017-10-03T20:03:31.914Z,85.50
2017-10-03T20:05:59.860Z,85.10
2017-10-03T20:08:27.407Z,85.10
2017-10-03T20:10:54.969Z,85.70
2017-10-03T20:13:22.505Z,86.00
2017-10-03T20:15:50.085Z,85.80
2017-10-03T20:18:17.633Z,85.80
2017-10-03T20:20:45.196Z,85.70
2017-10-03T20:23:12.758Z,85.80
2017-10-03T20:25:40.360Z,86.20
2017-10-03T20:28:07.941Z,86.60
2017-10-03T20:30:35.482Z,86.80
2017-10-03T20:33:03.038Z,86.70
2017-10-03T20:35:30.590Z,86.80
2017-10-03T20:37:58.154Z,87.10
2017-10-03T20:40:25.697Z,87.50
2017-10-03T20:42:53.267Z,87.50
2017-10-03T20:45:20.811Z,88.00
2017-10-03T20:47:48.404Z,87.50
2017-10-03T20:50:15.947Z,87.70
2017-10-03T20:52:43.490Z,87.60
2017-10-03T20:55:11.042Z,88.20
2017-10-03T20:57:38.595Z,88.10
2017-10-03T21:00:06.165Z,88.00
2017-10-03T21:02:34.102Z,88.00
2017-10-03T21:05:01.645Z,88.00
2017-10-03T21:07:29.236Z,87.90
2017-10-03T21:09:56.814Z,88.20
2017-10-03T21:12:24.364Z,88.60
2017-10-03T21:14:51.942Z,88.60
2017-10-03T21:17:19.487Z,88.60
2017-10-03T21:19:47.032Z,88.80
2017-10-03T21:22:14.987Z,89.30
2017-10-03T21:24:42.690Z,89.30
2017-10-03T21:27:10.272Z,89.60
2017-10-03T21:29:37.830Z,89.50
2017-10-03T21:32:05.430Z,89.90
2017-10-03T21:34:32.965Z,90.30
2017-10-03T21:37:00.529Z,90.00
2017-10-03T21:39:28.077Z,90.30
2017-10-03T21:42:07.494Z,90.40
2017-10-03T21:44:35.418Z,90.90
2017-10-03T21:47:03.003Z,90.80
2017-10-03T21:49:30.541Z,90.80
2017-10-03T21:51:58.085Z,90.90
2017-10-03T21:54:25.653Z,90.80
2017-10-03T21:56:53.190Z,91.20
2017-10-03T21:59:20.776Z,91.20
2017-10-03T22:01:48.721Z,91.20
2017-10-03T22:04:16.280Z,91.20
2017-10-03T22:06:43.828Z,90.80
2017-10-03T22:09:11.390Z,90.90
2017-10-03T22:11:38.940Z,90.70
2017-10-03T22:14:06.504Z,90.60
2017-10-03T22:16:34.476Z,90.80
2017-10-03T22:19:02.035Z,90.80
2017-10-03T22:21:29.635Z,90.70
2017-10-03T22:23:57.187Z,90.60
2017-10-03T22:26:24.777Z,90.80
2017-10-03T22:28:52.341Z,90.90
2017-10-03T22:31:19.890Z,91.40
2017-10-03T22:33:47.458Z,90.90
2017-10-03T22:36:15.001Z,91.00
2017-10-03T22:38:42.567Z,90.80
2017-10-03T22:41:10.114Z,90.80
2017-10-03T22:43:37.686Z,90.80
2017-10-03T22:46:05.231Z,90.80
2017-10-03T22:48:32.807Z,90.70
2017-10-03T22:51:05.992Z,90.70
2017-10-03T22:53:33.567Z,90.80
2017-10-03T22:56:01.114Z,90.80
2017-10-03T22:58:28.647Z,91.20
2017-10-03T23:00:56.226Z,91.30
2017-10-03T23:03:23.765Z,91.40
2017-10-03T23:05:51.323Z,91.30
2017-10-03T23:08:19.254Z,91.40
2017-10-03T23:10:46.818Z,91.40
2017-10-03T23:13:14.374Z,91.60
2017-10-03T23:15:42.351Z,91.40
2017-10-03T23:18:09.903Z,91.40
2017-10-03T23:20:37.466Z,91.20
2017-10-03T23:23:05.009Z,91.20
2017-10-03T23:25:32.551Z,91.20
2017-10-03T23:28:00.119Z,91.40
2017-10-03T23:30:27.671Z,91.70
2017-10-03T23:32:55.249Z,91.70
2017-10-03T23:35:22.797Z,91.70
2017-10-03T23:37:50.347Z,91.90
2017-10-03T23:40:17.886Z,91.90
2017-10-03T23:42:45.460Z,92.00
2017-10-03T23:45:13.003Z,92.00
2017-10-03T23:47:40.563Z,92.00
2017-10-03T23:50:08.122Z,92.00
2017-10-03T23:52:35.687Z,92.00
2017-10-03T23:55:03.244Z,91.90
2017-10-03T23:57:30.789Z,91.80
2017-10-03T23:59:58.362Z,91.60
